Time;durP1;ratioP1;P1;durP2;ratioP2;P2;SDS_P1;SDS_P2;PMS_P1;PMS_P2;Temp;Humidity;BMP_temperature;BMP_pressure;BME280_temperature;BME280_humidity;BME280_pressure;Samples;Min_cycle;Max_cycle;Signal;HPM_P1;HPM_P2
2021/03/18 00:01:33;;;;;;;;;;;;;;;18.12;61.65;101361.75;5131881;27;1349;-68
2021/03/18 00:04:00;;;;;;;;;;;;;;;18.13;61.61;101362.59;5132073;27;798;-69
2021/03/18 00:06:26;;;;;;;;;;;;;;;18.11;61.69;101362.69;5132215;27;1284;-68
2021/03/18 00:08:52;;;;;;;;;;;;;;;18.10;61.72;101360.97;5131871;27;817;-69
2021/03/18 00:11:19;;;;;;;;;;;;;;;18.10;61.73;101354.84;5131481;27;1905;-68
2021/03/18 00:13:46;;;;;;;;;;;;;;;18.12;61.84;101347.72;5113075;27;1366;-69
2021/03/18 00:16:13;;;;;;;;;;;;;;;18.09;61.62;101350.50;5131568;27;1307;-68
2021/03/18 00:18:45;;;;;;;;;;;;;;;18.08;61.76;101356.69;5131640;27;793;-69
2021/03/18 00:21:12;;;;;;;;;;;;;;;18.08;61.83;101359.34;5131583;27;1377;-69
2021/03/18 00:23:39;;;;;;;;;;;;;;;18.06;61.85;101345.34;5095446;27;1286;-69
2021/03/18 00:26:06;;;;;;;;;;;;;;;18.07;61.79;101355.84;5131991;27;1303;-69
2021/03/18 00:28:33;;;;;;;;;;;;;;;18.06;61.86;101347.97;5131654;27;1245;-68
2021/03/18 00:30:59;;;;;;;;;;;;;;;18.06;61.91;101345.34;5131739;27;1922;-68
2021/03/18 00:33:26;;;;;;;;;;;;;;;18.05;61.78;101343.66;5131490;27;944;-68
2021/03/18 00:35:52;;;;;;;;;;;;;;;18.05;61.78;101339.25;5131520;27;1306;-68
2021/03/18 00:38:19;;;;;;;;;;;;;;;18.05;61.99;101343.66;5131663;27;832;-66
2021/03/18 00:40:51;;;;;;;;;;;;;;;18.06;62.06;101342.69;5131370;27;1376;-68
2021/03/18 00:43:18;;;;;;;;;;;;;;;18.04;61.89;101345.41;5131293;27;1248;-68
2021/03/18 00:45:45;;;;;;;;;;;;;;;18.05;62.03;101341.00;5131200;27;1310;-68
2021/03/18 00:48:13;;;;;;;;;;;;;;;18.01;61.96;101338.50;5131727;27;797;-68
2021/03/18 00:50:44;;;;;;;;;;;;;;;18.02;62.00;101340.19;5130480;27;1939;-68
2021/03/18 00:53:12;;;;;;;;;;;;;;;18.01;62.12;101341.16;5130622;27;1083;-68
2021/03/18 00:55:38;;;;;;;;;;;;;;;18.00;62.25;101333.28;5130386;27;1278;-68
2021/03/18 00:58:05;;;;;;;;;;;;;;;18.00;62.16;101335.94;5112611;27;782;-68
2021/03/18 01:00:36;;;;;;;;;;;;;;;18.01;62.01;101343.78;5112249;27;1357;-68
2021/03/18 01:03:02;;;;;;;;;;;;;;;18.00;62.13;101344.69;5130825;27;940;-68
2021/03/18 01:05:49;;;;;;;;;;;;;;;17.99;62.05;101345.63;5129986;27;1448;-68
2021/03/18 01:08:16;;;;;;;;;;;;;;;17.99;62.14;101342.97;5130804;27;771;-68
2021/03/18 01:10:45;;;;;;;;;;;;;;;17.97;62.09;101342.19;5130878;27;1914;-69
2021/03/18 01:13:17;;;;;;;;;;;;;;;17.98;62.15;101337.78;5112174;27;1743;-68
2021/03/18 01:15:43;;;;;;;;;;;;;;;17.95;62.21;101330.88;5130819;27;1341;-69
2021/03/18 01:18:10;;;;;;;;;;;;;;;17.97;61.90;101336.06;5130635;27;816;-69
2021/03/18 01:20:37;;;;;;;;;;;;;;;17.95;62.04;101337.91;5130786;27;1270;-69
2021/03/18 01:23:03;;;;;;;;;;;;;;;17.93;62.13;101332.69;5130616;27;1079;-68
2021/03/18 01:25:29;;;;;;;;;;;;;;;17.94;62.05;101330.94;5094834;27;1738;-69
2021/03/18 01:27:55;;;;;;;;;;;;;;;17.93;62.23;101324.78;5130601;27;831;-69
2021/03/18 01:30:23;;;;;;;;;;;;;;;17.95;62.33;101322.09;5130457;27;1989;-68
2021/03/18 01:32:49;;;;;;;;;;;;;;;17.94;62.22;101310.69;5111691;27;1220;-69
2021/03/18 01:35:18;;;;;;;;;;;;;;;17.93;62.40;101316.88;5130399;27;1139;-69
2021/03/18 01:37:45;;;;;;;;;;;;;;;17.93;62.37;101310.78;5130325;27;1208;-69
2021/03/18 01:40:12;;;;;;;;;;;;;;;17.93;62.14;101301.06;5130268;27;828;-69
2021/03/18 01:42:39;;;;;;;;;;;;;;;17.92;62.23;101301.16;5130150;27;1332;-69
2021/03/18 01:45:06;;;;;;;;;;;;;;;17.92;62.39;101301.16;5130072;27;765;-68
2021/03/18 01:47:33;;;;;;;;;;;;;;;17.90;62.15;101303.84;5111230;27;1263;-69
2021/03/18 01:50:01;;;;;;;;;;;;;;;17.92;62.28;101296.75;5111461;27;1934;-69
2021/03/18 01:52:27;;;;;;;;;;;;;;;17.92;62.24;101309.94;5129906;27;1365;-68
2021/03/18 01:54:53;;;;;;;;;;;;;;;17.91;62.37;101291.53;5130241;27;832;-69
2021/03/18 01:57:24;;;;;;;;;;;;;;;17.90;62.26;101295.94;5130738;27;1333;-69
2021/03/18 01:59:52;;;;;;;;;;;;;;;17.91;62.34;101297.66;5094656;27;1195;-69
2021/03/18 02:02:18;;;;;;;;;;;;;;;17.89;62.24;101286.34;5130351;27;1353;-69
2021/03/18 02:04:45;;;;;;;;;;;;;;;17.89;62.24;101285.47;5129592;27;845;-68
2021/03/18 02:07:11;;;;;;;;;;;;;;;17.90;62.23;101297.75;5129826;27;1306;-69
2021/03/18 02:09:37;;;;;;;;;;;;;;;17.88;62.47;101292.53;5129995;27;1945;-69
2021/03/18 02:12:04;;;;;;;;;;;;;;;17.88;62.34;101300.44;5129628;27;1369;-69
2021/03/18 02:14:30;;;;;;;;;;;;;;;17.89;62.45;101302.16;5111410;27;845;-69
2021/03/18 02:16:58;;;;;;;;;;;;;;;17.88;62.47;101303.06;5130055;27;1290;-69
2021/03/18 02:19:53;;;;;;;;;;;;;;;17.87;62.48;101300.53;5111395;28;1843;-69
2021/03/18 02:22:20;;;;;;;;;;;;;;;17.86;62.18;101290.88;5130227;28;1270;-69
2021/03/18 02:24:49;;;;;;;;;;;;;;;17.85;62.11;101292.66;5129794;28;781;-69
2021/03/18 02:27:34;;;;;;;;;;;;;;;17.84;62.23;101292.75;5111104;28;1293;-69
2021/03/18 02:30:03;;;;;;;;;;;;;;;17.84;62.19;101290.94;5111160;28;1971;-69
2021/03/18 02:32:40;;;;;;;;;;;;;;;17.85;62.50;101289.16;5110771;28;1262;-69
2021/03/18 02:35:06;;;;;;;;;;;;;;;17.82;62.27;101284.91;5111565;28;963;-69
2021/03/18 02:37:32;;;;;;;;;;;;;;;17.84;62.08;101284.84;5130005;28;1266;-69
2021/03/18 02:40:04;;;;;;;;;;;;;;;17.83;62.27;101283.97;5129711;28;772;-69
2021/03/18 02:42:33;;;;;;;;;;;;;;;17.82;62.05;101284.03;5129822;28;1266;-70
2021/03/18 02:45:01;;;;;;;;;;;;;;;17.81;62.04;101277.06;5129489;28;776;-69
2021/03/18 02:47:30;;;;;;;;;;;;;;;17.82;61.79;101278.75;5131884;27;1366;-70
2021/03/18 02:49:57;;;;;;;;;;;;;;;17.81;61.71;101277.91;5133551;27;1910;-69
2021/03/18 02:52:24;;;;;;;;;;;;;;;17.82;61.72;101273.50;5134120;27;1356;-71
2021/03/18 02:54:55;;;;;;;;;;;;;;;17.81;61.72;101264.72;5114888;27;770;-69
2021/03/18 02:57:22;;;;;;;;;;;;;;;17.81;61.63;101267.34;5114961;27;1294;-69
2021/03/18 02:59:50;;;;;;;;;;;;;;;17.81;61.42;101262.09;5133258;27;803;-69
2021/03/18 03:02:25;;;;;;;;;;;;;;;17.81;61.61;101243.66;5133617;27;1362;-69
2021/03/18 03:04:53;;;;;;;;;;;;;;;17.82;61.48;101241.88;5133455;27;814;-68
2021/03/18 03:07:22;;;;;;;;;;;;;;;17.80;61.45;101236.69;5133561;27;1404;-68
2021/03/18 03:09:49;;;;;;;;;;;;;;;17.80;61.39;101239.31;5132960;27;1909;-68
2021/03/18 03:12:16;;;;;;;;;;;;;;;17.77;61.20;101228.91;5113872;27;1280;-69
2021/03/18 03:14:44;;;;;;;;;;;;;;;17.78;61.41;101233.25;5114392;27;1110;-69
2021/03/18 03:17:13;;;;;;;;;;;;;;;17.78;61.30;101235.06;5133511;27;1400;-68
2021/03/18 03:19:41;;;;;;;;;;;;;;;17.77;61.08;101233.31;5114324;27;1298;-69
2021/03/18 03:22:08;;;;;;;;;;;;;;;17.76;61.20;101227.19;5133367;27;1274;-69
2021/03/18 03:24:35;;;;;;;;;;;;;;;17.76;60.93;101237.75;5132989;27;1213;-66
2021/03/18 03:27:03;;;;;;;;;;;;;;;17.76;61.22;101234.25;5133331;27;1384;-69
2021/03/18 03:29:30;;;;;;;;;;;;;;;17.75;60.99;101220.22;5133147;27;927;-68
2021/03/18 03:31:57;;;;;;;;;;;;;;;17.73;60.96;101214.16;5133033;27;1910;-69
2021/03/18 03:34:23;;;;;;;;;;;;;;;17.73;60.93;101216.78;5132632;27;1078;-69
2021/03/18 03:36:50;;;;;;;;;;;;;;;17.76;60.78;101211.38;5114034;27;1256;-69
2021/03/18 03:39:16;;;;;;;;;;;;;;;17.74;60.77;101204.47;5132746;27;855;-69
2021/03/18 03:41:44;;;;;;;;;;;;;;;17.76;60.79;101207.88;5132807;27;1310;-69
2021/03/18 03:44:10;;;;;;;;;;;;;;;17.76;60.48;101208.75;5132510;27;1083;-69
2021/03/18 03:46:37;;;;;;;;;;;;;;;17.73;60.64;101205.41;5113839;27;1420;-69
2021/03/18 03:49:04;;;;;;;;;;;;;;;17.74;60.64;101207.97;5132733;27;1392;-70
2021/03/18 03:51:35;;;;;;;;;;;;;;;17.73;60.37;101198.34;5132299;27;1906;-69
2021/03/18 03:54:02;;;;;;;;;;;;;;;17.74;60.47;101189.53;5132404;27;778;-70
2021/03/18 03:56:53;;;;;;;;;;;;;;;17.72;60.35;101188.72;5132473;27;1318;-69
2021/03/18 03:59:21;;;;;;;;;;;;;;;17.72;60.25;101188.72;5131336;27;757;-69
2021/03/18 04:01:51;;;;;;;;;;;;;;;17.73;60.15;101198.34;5132739;27;1294;-69
2021/03/18 04:04:28;;;;;;;;;;;;;;;17.73;60.36;101193.09;5132362;27;797;-69
2021/03/18 04:07:05;;;;;;;;;;;;;;;17.72;60.35;101199.25;5132037;27;1523;-69
2021/03/18 04:09:33;;;;;;;;;;;;;;;17.71;60.42;101192.31;5131834;27;774;-69
2021/03/18 04:12:00;;;;;;;;;;;;;;;17.74;60.47;101196.56;5132236;27;1910;-70
2021/03/18 04:14:28;;;;;;;;;;;;;;;17.71;60.15;101192.31;5131818;27;808;-70
2021/03/18 04:16:57;;;;;;;;;;;;;;;17.71;60.02;101189.66;5132129;27;1282;-70
2021/03/18 04:19:24;;;;;;;;;;;;;;;17.70;59.93;101190.59;5132379;27;806;-70
2021/03/18 04:21:51;;;;;;;;;;;;;;;17.70;59.78;101193.22;5131665;27;1240;-69
2021/03/18 04:24:18;;;;;;;;;;;;;;;17.68;60.10;101188.94;5131436;27;828;-69
2021/03/18 04:26:46;;;;;;;;;;;;;;;17.66;60.24;101193.44;5131958;27;1381;-69
2021/03/18 04:29:14;;;;;;;;;;;;;;;17.68;60.05;101196.84;5132065;27;855;-69
2021/03/18 04:31:41;;;;;;;;;;;;;;;17.66;60.19;101182.91;5132057;27;1909;-69
2021/03/18 04:34:09;;;;;;;;;;;;;;;17.66;60.10;101180.28;5113273;27;1102;-69
2021/03/18 04:36:35;;;;;;;;;;;;;;;17.69;60.01;101175.69;5113276;27;1392;-69
2021/03/18 04:39:03;;;;;;;;;;;;;;;17.68;60.48;101166.09;5131773;27;777;-69
2021/03/18 04:41:30;;;;;;;;;;;;;;;17.66;59.92;101165.28;5131364;27;1248;-68
2021/03/18 04:43:57;;;;;;;;;;;;;;;17.66;60.20;101167.09;5131350;27;788;-69
2021/03/18 04:46:24;;;;;;;;;;;;;;;17.64;60.13;101172.41;5131563;27;1384;-69
2021/03/18 04:48:55;;;;;;;;;;;;;;;17.65;60.07;101171.50;5131041;27;1465;-70
2021/03/18 04:51:21;;;;;;;;;;;;;;;17.67;59.78;101174.91;5131203;27;1997;-69
2021/03/18 04:53:48;;;;;;;;;;;;;;;17.64;59.83;101177.69;5131008;27;863;-70
2021/03/18 04:56:14;;;;;;;;;;;;;;;17.64;59.72;101168.94;5131272;27;1267;-68
2021/03/18 04:58:42;;;;;;;;;;;;;;;17.68;59.55;101170.50;5131653;27;793;-68
2021/03/18 05:01:09;;;;;;;;;;;;;;;17.66;59.61;101172.38;5096668;27;1425;-69
2021/03/18 05:03:36;;;;;;;;;;;;;;;17.62;59.75;101166.38;5130910;27;1089;-69
2021/03/18 05:06:04;;;;;;;;;;;;;;;17.63;59.59;101167.25;5130994;27;1286;-69
2021/03/18 05:08:31;;;;;;;;;;;;;;;17.68;59.72;101159.97;5130956;27;833;-69
2021/03/18 05:10:58;;;;;;;;;;;;;;;17.66;59.38;101164.47;5130461;27;1990;-70
2021/03/18 05:13:25;;;;;;;;;;;;;;;17.66;59.75;101170.56;5130837;27;817;-69
2021/03/18 05:15:53;;;;;;;;;;;;;;;17.68;59.48;101179.28;5111543;27;1337;-70
2021/03/18 05:18:19;;;;;;;;;;;;;;;17.69;59.83;101180.97;5130821;27;824;-69
2021/03/18 05:20:46;;;;;;;;;;;;;;;17.66;59.74;101178.47;5112195;27;1282;-69
2021/03/18 05:23:14;;;;;;;;;;;;;;;17.64;60.03;101182.09;5130929;27;1163;-69
2021/03/18 05:25:40;;;;;;;;;;;;;;;17.66;59.84;101180.28;5130782;27;1295;-69
2021/03/18 05:28:07;;;;;;;;;;;;;;;17.62;59.98;101186.59;5112153;27;1107;-69
2021/03/18 05:30:34;;;;;;;;;;;;;;;17.64;60.05;101177.69;5130595;27;1973;-69
2021/03/18 05:33:01;;;;;;;;;;;;;;;17.62;60.20;101174.28;5130450;27;789;-69
2021/03/18 05:35:36;;;;;;;;;;;;;;;17.63;60.42;101178.59;5130938;27;1359;-69
2021/03/18 05:38:04;;;;;;;;;;;;;;;17.70;60.74;101176.56;5130584;27;847;-68
2021/03/18 05:40:30;;;;;;;;;;;;;;;17.61;60.20;101182.25;5130538;27;1355;-68
2021/03/18 05:42:57;;;;;;;;;;;;;;;17.63;60.17;101178.59;5111460;27;1072;-69
2021/03/18 05:45:23;;;;;;;;;;;;;;;17.65;60.30;101181.19;5130156;27;1187;-69
2021/03/18 05:47:50;;;;;;;;;;;;;;;17.63;60.14;101183.88;5111464;27;1291;-69
2021/03/18 05:50:18;;;;;;;;;;;;;;;17.60;59.99;101191.09;5129807;27;1995;-68
2021/03/18 05:52:45;;;;;;;;;;;;;;;17.60;60.23;101184.00;5129810;27;1216;-68
2021/03/18 05:55:12;;;;;;;;;;;;;;;17.58;60.11;101185.88;5130120;27;1122;-69
2021/03/18 05:57:39;;;;;;;;;;;;;;;17.63;60.20;101185.69;5130017;27;1318;-69
2021/03/18 06:00:10;;;;;;;;;;;;;;;17.68;60.39;101189.81;5111191;27;1376;-69
2021/03/18 06:02:39;;;;;;;;;;;;;;;17.70;60.42;101190.59;5130040;27;1279;-74
2021/03/18 06:05:11;;;;;;;;;;;;;;;17.65;60.75;101187.31;5111574;27;1334;-75
2021/03/18 06:07:39;;;;;;;;;;;;;;;17.69;60.41;101188.03;5129729;27;1370;-73
2021/03/18 06:10:06;;;;;;;;;;;;;;;17.67;60.33;101184.59;5111644;28;1906;-74
2021/03/18 06:12:33;;;;;;;;;;;;;;;17.65;60.57;101189.09;5130052;27;1279;-73
2021/03/18 06:14:59;;;;;;;;;;;;;;;17.64;60.52;101180.31;5111251;28;777;-72
2021/03/18 06:17:30;;;;;;;;;;;;;;;17.61;60.38;101180.47;5130138;27;1295;-73
2021/03/18 06:19:58;;;;;;;;;;;;;;;17.60;60.42;101186.66;5111788;28;872;-71
2021/03/18 06:22:34;;;;;;;;;;;;;;;17.61;60.53;101185.72;5129231;27;1247;-69
2021/03/18 06:25:00;;;;;;;;;;;;;;;17.61;60.58;101183.09;5129673;28;848;-69
2021/03/18 06:27:26;;;;;;;;;;;;;;;17.63;61.00;101177.78;5129868;28;1354;-68
2021/03/18 06:29:55;;;;;;;;;;;;;;;17.63;60.52;101188.31;5111384;28;853;-70
2021/03/18 06:32:21;;;;;;;;;;;;;;;17.68;60.69;101184.53;5093597;28;1910;-69
2021/03/18 06:34:51;;;;;;;;;;;;;;;17.66;60.48;101190.81;5094859;28;875;-69
2021/03/18 06:37:31;;;;;;;;;;;;;;;17.63;60.46;101189.16;5088277;28;1299;-68
2021/03/18 06:40:07;;;;;;;;;;;;;;;17.64;60.63;101180.31;5087799;28;876;-67
2021/03/18 06:42:34;;;;;;;;;;;;;;;17.68;60.52;101176.63;5088049;28;1279;-69
2021/03/18 06:45:05;;;;;;;;;;;;;;;17.67;61.34;101174.06;5088086;28;809;-73
2021/03/18 06:47:41;;;;;;;;;;;;;;;17.71;60.86;101171.22;5069481;28;1345;-73
2021/03/18 06:50:08;;;;;;;;;;;;;;;17.69;60.87;101180.13;5087520;28;1979;-72
2021/03/18 06:52:35;;;;;;;;;;;;;;;17.68;60.36;101179.28;5087158;28;1252;-75
2021/03/18 06:55:01;;;;;;;;;;;;;;;17.72;61.10;101187.91;5087783;28;876;-73
2021/03/18 06:57:27;;;;;;;;;;;;;;;17.85;61.82;101186.38;5087778;28;1385;-72
2021/03/18 06:59:54;;;;;;;;;;;;;;;17.85;61.34;101179.34;5069492;28;790;-72
2021/03/18 07:02:20;;;;;;;;;;;;;;;17.92;61.42;101180.78;5087908;28;1248;-71
2021/03/18 07:04:47;;;;;;;;;;;;;;;17.79;61.03;101179.63;5069025;28;1195;-70
2021/03/18 07:07:14;;;;;;;;;;;;;;;17.75;60.49;101187.75;5087567;28;1303;-71
2021/03/18 07:09:43;;;;;;;;;;;;;;;17.70;60.58;101182.69;5087419;28;860;-70
2021/03/18 07:12:10;;;;;;;;;;;;;;;17.71;60.35;101201.97;5087499;28;1975;-71
2021/03/18 07:14:50;;;;;;;;;;;;;;;17.68;60.61;101202.97;5087572;28;1004;-70
2021/03/18 07:17:27;;;;;;;;;;;;;;;17.69;60.75;101202.03;5087615;28;1267;-70
2021/03/18 07:20:13;;;;;;;;;;;;;;;17.83;61.31;101191.75;5087240;28;914;-69
2021/03/18 07:22:41;;;;;;;;;;;;;;;17.80;61.61;101197.16;5087157;28;1293;-71
2021/03/18 07:25:08;;;;;;;;;;;;;;;17.82;61.75;101200.56;5087183;28;904;-69
2021/03/18 07:27:39;;;;;;;;;;;;;;;17.90;61.67;101192.31;5087842;28;1269;-67
2021/03/18 07:30:05;;;;;;;;;;;;;;;17.87;61.93;101200.38;5068601;28;801;-67
2021/03/18 07:32:32;;;;;;;;;;;;;;;17.82;61.59;101204.97;5099614;28;1906;-68
2021/03/18 07:34:59;;;;;;;;;;;;;;;17.81;61.47;101200.66;5091102;28;806;-69
2021/03/18 07:37:25;;;;;;;;;;;;;;;17.88;61.68;101204.69;5091004;28;1267;-69
2021/03/18 07:39:53;;;;;;;;;;;;;;;17.81;61.28;101198.03;5101042;27;981;-67
2021/03/18 07:42:21;;;;;;;;;;;;;;;17.87;61.90;101201.19;5109773;27;1335;-66
2021/03/18 07:44:47;;;;;;;;;;;;;;;17.92;62.02;101201.00;5123628;27;965;-68
2021/03/18 07:47:14;;;;;;;;;;;;;;;17.94;62.38;101200.00;5092053;28;1390;-67
2021/03/18 07:49:49;;;;;;;;;;;;;;;17.92;61.91;101201.88;5123086;27;1319;-64
2021/03/18 07:52:20;;;;;;;;;;;;;;;17.84;62.31;101206.59;5103160;28;1971;-67
2021/03/18 07:54:50;;;;;;;;;;;;;;;17.90;61.73;101213.41;5086899;27;1815;-70
2021/03/18 07:57:17;;;;;;;;;;;;;;;17.81;61.51;101206.75;5091138;28;1363;-71
2021/03/18 07:59:43;;;;;;;;;;;;;;;17.79;61.34;101211.25;5110239;27;1377;-70
2021/03/18 08:02:17;;;;;;;;;;;;;;;17.79;61.48;101205.97;5109765;28;1322;-69
2021/03/18 08:04:45;;;;;;;;;;;;;;;17.77;61.11;101210.47;5097944;27;802;-70
2021/03/18 08:07:41;;;;;;;;;;;;;;;17.77;61.60;101206.97;5114853;27;1271;-68
2021/03/18 08:10:09;;;;;;;;;;;;;;;17.78;60.95;101206.88;5091001;27;1199;-68
2021/03/18 08:13:04;;;;;;;;;;;;;;;17.79;61.27;101202.47;5111987;27;1984;-71
2021/03/18 08:15:31;;;;;;;;;;;;;;;17.78;61.46;101201.63;5088194;28;1361;-72
2021/03/18 08:18:17;;;;;;;;;;;;;;;17.79;61.01;101208.63;5089161;28;1552;-72
2021/03/18 08:20:47;;;;;;;;;;;;;;;17.80;60.90;101215.59;5082065;28;1577;-70
2021/03/18 08:23:22;;;;;;;;;;;;;;;17.81;60.99;101211.19;5090448;28;1200;-70
2021/03/18 08:25:56;;;;;;;;;;;;;;;17.86;62.46;101207.41;5099412;28;1442;-69
2021/03/18 08:28:35;;;;;;;;;;;;;;;17.88;61.96;101213.47;5123030;27;883;-68
2021/03/18 08:31:02;;;;;;;;;;;;;;;18.03;62.49;101212.75;5104069;27;1914;-67
2021/03/18 08:33:33;;;;;;;;;;;;;;;17.92;61.13;101211.53;5130450;27;1575;-66
2021/03/18 08:36:19;;;;;;;;;;;;;;;17.81;61.32;101214.66;5108913;28;1376;-67
2021/03/18 08:38:46;;;;;;;;;;;;;;;17.73;61.36;101206.25;5090428;28;1232;-65
2021/03/18 08:41:31;;;;;;;;;;;;;;;17.72;61.30;101211.63;5090477;28;1401;-66
2021/03/18 08:44:13;;;;;;;;;;;;;;;17.70;61.21;101203.75;5090147;28;818;-70
2021/03/18 08:46:49;;;;;;;;;;;;;;;17.70;61.09;101206.41;5112309;27;1204;-67
2021/03/18 08:49:29;;;;;;;;;;;;;;;17.70;61.03;101206.41;5108171;28;1343;-66
2021/03/18 08:52:03;;;;;;;;;;;;;;;17.70;61.27;101201.13;5097466;28;1942;-66
2021/03/18 08:54:44;;;;;;;;;;;;;;;17.70;60.88;101205.53;5098041;28;1617;-67
2021/03/18 08:57:13;;;;;;;;;;;;;;;17.68;60.96;101205.63;5108826;28;1175;-68
2021/03/18 08:59:45;;;;;;;;;;;;;;;17.68;61.00;101210.03;5113405;27;1023;-67
2021/03/18 09:02:14;;;;;;;;;;;;;;;17.66;60.97;101217.97;5108820;28;1223;-67
2021/03/18 09:04:42;;;;;;;;;;;;;;;17.68;60.92;101210.88;5114581;27;1166;-68
2021/03/18 09:07:10;;;;;;;;;;;;;;;17.68;60.62;101221.44;5110661;27;1258;-67
2021/03/18 09:09:36;;;;;;;;;;;;;;;17.67;60.90;101227.63;5129275;27;1062;-68
2021/03/18 09:12:03;;;;;;;;;;;;;;;17.66;60.59;101233.78;5125898;27;1902;-68
2021/03/18 09:14:30;;;;;;;;;;;;;;;17.64;60.56;101233.03;5094308;27;1088;-69
2021/03/18 09:17:04;;;;;;;;;;;;;;;17.63;60.85;101236.56;5129627;27;1227;-68
2021/03/18 09:19:37;;;;;;;;;;;;;;;17.64;60.84;101238.28;5128876;27;975;-67
2021/03/18 09:22:04;;;;;;;;;;;;;;;17.61;60.82;101235.78;5101400;28;1272;-69
2021/03/18 09:24:37;;;;;;;;;;;;;;;17.61;60.79;101238.41;5107534;28;1166;-69
2021/03/18 09:27:10;;;;;;;;;;;;;;;17.60;60.45;101241.97;5069423;28;1533;-68
2021/03/18 09:29:36;;;;;;;;;;;;;;;17.62;60.87;101234.88;5097879;27;1245;-69
2021/03/18 09:32:04;;;;;;;;;;;;;;;17.63;60.77;101233.09;5128599;27;1980;-69
2021/03/18 09:34:31;;;;;;;;;;;;;;;17.63;60.74;101228.66;5088365;28;1295;-69
2021/03/18 09:36:58;;;;;;;;;;;;;;;17.64;60.79;101218.97;5108378;28;1283;-69
2021/03/18 09:39:24;;;;;;;;;;;;;;;17.64;60.93;101225.13;5108158;28;1127;-69
2021/03/18 09:41:51;;;;;;;;;;;;;;;17.63;60.76;101218.13;5108356;28;1263;-69
2021/03/18 09:44:20;;;;;;;;;;;;;;;17.63;60.37;101220.75;5092497;27;992;-69
2021/03/18 09:46:49;;;;;;;;;;;;;;;17.70;61.06;101219.56;5128866;27;1242;-72
2021/03/18 09:49:16;;;;;;;;;;;;;;;17.71;60.47;101229.19;5109554;27;1431;-68
2021/03/18 09:51:43;;;;;;;;;;;;;;;17.71;60.01;101225.69;5110163;27;1938;-69
2021/03/18 09:54:10;;;;;;;;;;;;;;;17.66;60.11;101223.25;5128274;27;971;-69
2021/03/18 09:56:41;;;;;;;;;;;;;;;17.62;60.05;101228.75;5108955;27;1263;-68
2021/03/18 09:59:10;;;;;;;;;;;;;;;17.62;60.14;101226.13;5109479;27;1507;-68
2021/03/18 10:01:37;;;;;;;;;;;;;;;17.59;60.25;101219.22;5109886;27;1348;-67
2021/03/18 10:04:05;;;;;;;;;;;;;;;17.63;60.69;101226.03;5110855;27;1053;-68
2021/03/18 10:06:34;;;;;;;;;;;;;;;17.63;60.23;101220.75;5103793;28;1405;-68
2021/03/18 10:09:14;;;;;;;;;;;;;;;17.65;59.63;101220.72;5109186;27;1038;-68
2021/03/18 10:11:43;;;;;;;;;;;;;;;17.64;59.82;101221.63;5128083;27;1921;-68
2021/03/18 10:14:10;;;;;;;;;;;;;;;17.62;59.69;101223.47;5127977;27;832;-68
2021/03/18 10:16:39;;;;;;;;;;;;;;;17.64;59.82;101214.56;5128157;27;1441;-67
2021/03/18 10:19:09;;;;;;;;;;;;;;;17.62;59.86;101216.44;5128071;27;991;-68
2021/03/18 10:21:37;;;;;;;;;;;;;;;17.63;60.23;101212.84;5122975;28;1361;-68
2021/03/18 10:24:04;;;;;;;;;;;;;;;17.70;60.75;101216.94;5085518;28;1578;-69
2021/03/18 10:26:31;;;;;;;;;;;;;;;17.72;61.10;101207.16;5058560;28;1364;-66
2021/03/18 10:29:01;;;;;;;;;;;;;;;17.74;62.53;101201.84;5068979;28;1084;-72
2021/03/18 10:31:28;;;;;;;;;;;;;;;17.75;62.81;101201.75;5096419;28;1913;-70
2021/03/18 10:33:55;;;;;;;;;;;;;;;17.73;63.63;101200.13;5106609;28;1029;-69
2021/03/18 10:36:39;;;;;;;;;;;;;;;17.72;63.79;101193.16;5087604;28;1298;-70
2021/03/18 10:39:10;;;;;;;;;;;;;;;17.78;64.33;101187.63;5071015;28;1004;-70
2021/03/18 10:41:54;;;;;;;;;;;;;;;17.80;63.51;101175.22;5092001;28;1441;-68
2021/03/18 10:44:35;;;;;;;;;;;;;;;17.83;64.37;101178.56;5127280;28;935;-70
2021/03/18 10:47:17;;;;;;;;;;;;;;;17.79;63.80;101174.34;5109209;28;1342;-69
2021/03/18 10:50:04;;;;;;;;;;;;;;;17.73;63.52;101164.09;5109011;28;1421;-70
2021/03/18 10:52:37;;;;;;;;;;;;;;;17.69;63.79;101157.25;5109077;28;1981;-70
2021/03/18 10:55:03;;;;;;;;;;;;;;;17.66;63.72;101157.38;5127593;28;987;-70
2021/03/18 10:57:30;;;;;;;;;;;;;;;17.67;63.88;101153.84;5128192;28;1282;-69
2021/03/18 10:59:58;;;;;;;;;;;;;;;17.66;63.80;101152.13;5109085;28;1177;-69
2021/03/18 11:02:28;;;;;;;;;;;;;;;17.64;63.81;101153.97;5109702;28;1282;-69
2021/03/18 11:04:59;;;;;;;;;;;;;;;17.62;63.90;101140.03;5108972;28;1199;-69
2021/03/18 11:07:30;;;;;;;;;;;;;;;17.63;63.69;101144.34;5109532;27;1339;-68
2021/03/18 11:10:12;;;;;;;;;;;;;;;17.63;63.67;101140.91;5112575;27;1352;-69
2021/03/18 11:12:40;;;;;;;;;;;;;;;17.62;63.61;101139.19;5131815;27;2113;-69
2021/03/18 11:15:08;;;;;;;;;;;;;;;17.63;64.03;101140.91;5112604;27;1054;-69
2021/03/18 11:17:36;;;;;;;;;;;;;;;17.61;63.73;101129.56;5113016;27;1287;-69
2021/03/18 11:20:08;;;;;;;;;;;;;;;17.60;63.69;101141.03;5130882;27;1023;-70
2021/03/18 11:22:35;;;;;;;;;;;;;;;17.59;63.76;101134.91;5099188;28;1341;-70
2021/03/18 11:25:02;;;;;;;;;;;;;;;17.60;63.87;101125.22;5098466;27;1370;-69
2021/03/18 11:27:30;;;;;;;;;;;;;;;17.61;63.49;101127.78;5110858;28;1408;-70
2021/03/18 11:29:58;;;;;;;;;;;;;;;17.60;63.47;101131.31;5117727;27;864;-70
2021/03/18 11:32:44;;;;;;;;;;;;;;;17.58;63.89;101127.91;5114553;27;1898;-70
2021/03/18 11:35:11;;;;;;;;;;;;;;;17.59;63.74;101124.38;5112357;27;995;-70
2021/03/18 11:37:37;;;;;;;;;;;;;;;17.60;63.54;101123.44;5112095;27;1555;-69
2021/03/18 11:40:08;;;;;;;;;;;;;;;17.60;63.67;101120.78;5124235;27;1643;-68
2021/03/18 11:42:38;;;;;;;;;;;;;;;17.59;63.60;101115.59;5098642;27;1338;-68
2021/03/18 11:45:07;;;;;;;;;;;;;;;17.57;63.70;101110.41;5102876;28;1199;-68
2021/03/18 11:47:35;;;;;;;;;;;;;;;17.55;63.89;101117.53;5058955;28;1379;-68
2021/03/18 11:50:22;;;;;;;;;;;;;;;17.56;63.64;101106.06;5112674;27;1588;-67
2021/03/18 11:53:00;;;;;;;;;;;;;;;17.58;61.35;101122.66;5112130;27;1989;-66
2021/03/18 11:55:30;;;;;;;;;;;;;;;17.62;60.84;101103.16;5128963;27;1317;-68
2021/03/18 11:58:02;;;;;;;;;;;;;;;17.60;58.73;101115.53;5102127;28;1581;-68
2021/03/18 12:00:33;;;;;;;;;;;;;;;17.55;59.14;101104.34;5097082;28;1362;-68
2021/03/18 12:03:05;;;;;;;;;;;;;;;17.55;57.10;101104.34;5091728;28;1551;-68
2021/03/18 12:05:39;;;;;;;;;;;;;;;17.59;58.16;101107.72;5112321;27;1321;-68
2021/03/18 12:08:07;;;;;;;;;;;;;;;17.54;57.14;101097.34;5091052;28;931;-69
2021/03/18 12:10:36;;;;;;;;;;;;;;;17.60;54.11;101091.81;5105021;27;1271;-68
2021/03/18 12:13:04;;;;;;;;;;;;;;;17.60;54.24;101097.09;5111439;27;1988;-69
2021/03/18 12:15:31;;;;;;;;;;;;;;;17.58;54.23;101087.53;5111516;27;2174;-69
2021/03/18 12:17:58;;;;;;;;;;;;;;;17.55;54.68;101087.69;5130340;27;809;-69
2021/03/18 12:20:28;;;;;;;;;;;;;;;17.60;54.58;101078.63;5087620;27;1945;-68
2021/03/18 12:22:56;;;;;;;;;;;;;;;17.63;54.47;101091.66;5113890;27;1275;-68
2021/03/18 12:25:25;;;;;;;;;;;;;;;17.55;52.37;101075.38;5080421;27;1252;-68
2021/03/18 12:27:56;;;;;;;;;;;;;;;17.45;52.65;101074.06;5108874;27;1341;-66
2021/03/18 12:30:23;;;;;;;;;;;;;;;17.37;51.88;101063.91;5098611;28;1568;-68
2021/03/18 12:32:54;;;;;;;;;;;;;;;17.40;52.93;101055.00;5109305;28;1901;-73
2021/03/18 12:35:21;;;;;;;;;;;;;;;17.42;51.16;101053.13;5120709;27;1023;-70
2021/03/18 12:37:51;;;;;;;;;;;;;;;17.37;50.47;101044.59;5111189;27;1299;-75
2021/03/18 12:40:19;;;;;;;;;;;;;;;17.31;50.03;101045.75;5109792;27;996;-76
2021/03/18 12:42:46;;;;;;;;;;;;;;;17.39;50.51;101053.28;5128909;27;1326;-69
2021/03/18 12:45:15;;;;;;;;;;;;;;;17.46;50.80;101033.63;5118485;27;938;-73
2021/03/18 12:47:43;;;;;;;;;;;;;;;17.52;52.37;101045.66;5108910;28;1224;-71
2021/03/18 12:50:18;;;;;;;;;;;;;;;17.60;54.06;101040.94;5119517;27;1544;-67
2021/03/18 12:52:45;;;;;;;;;;;;;;;17.64;54.58;101038.06;5111111;27;1983;-68
2021/03/18 12:55:12;;;;;;;;;;;;;;;17.65;55.15;101029.25;5128959;27;1058;-68
2021/03/18 12:57:51;;;;;;;;;;;;;;;17.69;55.73;101032.59;5128919;27;1238;-70
2021/03/18 13:00:21;;;;;;;;;;;;;;;17.70;56.26;101023.75;5117150;27;1062;-68
2021/03/18 13:02:49;;;;;;;;;;;;;;;17.76;57.70;101032.22;5108403;28;1349;-66